KCRS/CRS METAR and TAF weather

Enter ICAO airport designator
Station Type Date Time Source
KCRS METAR 2018/12/10 18:53 UTC NOAA

KCRS 101853Z AUTO VRB04KT 10SM CLR 12/M01 A3038 RMK AO2 SLP290 T01171011


Station Type Date Time Source
KCRS Decoded METAR 2018/12/10 18:53 UTC NOAA

CORSICANA AIRFIELD, TX, United States (KCRS) 32-01N 96-23W 133M
Dec 10, 2018 - 01:53 PM EST / 2018.12.10 1853 UTC
Wind: Variable at 5 MPH (4 KT):0
Visibility: 10 mile(s):0
Sky conditions: clear
Temperature: 53.1 F (11.7 C)
Dew Point: 30.0 F (-1.1 C)
Relative Humidity: 41%
Pressure (altimeter): 30.38 in. Hg (1028 hPa)
ob: KCRS 101853Z AUTO VRB04KT 10SM CLR 12/M01 A3038 RMK AO2 SLP290 T01171011
cycle: 19

Station Type Date Time Source
KCRS TAF UTC NOAA

Error!


Example: see airport list